Terminal Aerodrome Forecast
Issued by NWS

Home | Current Version | Previous Version | Text Only | Print | Product List | Glossary On
Versions: 1 2 3 4 5 6 7 8 9 10 11 12 13 14 15 16 17 18 19 20 21 22
000
FTUS45 KSLC 280520
TAF36U
TAF
K36U 280520Z 2806/2906 VRB04KT P6SM VCSH SCT080 BKN100
     FM281900 11006KT P6SM VCTS SCT070CB BKN100
     FM282300 11006KT P6SM VCSH SCT070 BKN100
     FM290300 VRB06KT P6SM SCT070 BKN110=

USA.gov is the U.S. government's official web portal to all federal, state and local government web resources and services.